Airfield :
LOGIN :

Register | Disclaimer

   EN    FR    IT 

 










Legend :    VFR   Marginal VFR   IFR   Intensive IFR   Very Intensive IFR
Visi :
Ceiling :
>= 8 km
>= 3000ft
5 to 8 km
1000 to 3000 ft
1500m to 5 km
500 to 1000 ft
800 to 1500m
200 to 500 ft
< 800m
< 200 ft
Symbols :   Thunderstorms  Fog  Heavy snow  Heavy precipitations  Wind > 20 kt
SIGMETs :     Misc.  Thunderstorms  Icing  Turbulence  Mountain Waves  Volcanic Ashes







- Airport Elevation : 219 ft
- IATA code : DNR
- Download approach charts


LFRD - Dinard

CURRENT METAR :
  • 240000Z AUTO 02011KT 9999 FEW010 BKN056 OVC066 09/08 Q1006 TEMPO 3000 RA BKN005 BKN012CB

EXPIRED METARs :
  • 232330Z AUTO 35019KT 9999 BKN007/// BKN011/// OVC016/// ///CB 09/08 Q1006 TEMPO 3000 RA
  • 232300Z AUTO 36019KT 330V030 7000 -RA SCT006/// BKN015/// BKN029/// ///CB 10/09 Q1005 TEMPO 3000 RA BKN007 BKN012CB
  • 232230Z AUTO 17013KT 9999 -RA SCT010/// OVC016/// ///TCU 12/11 Q1003 TEMPO 3000 RA BKN007 BKN012CB BECMG 33012KT
  • 232200Z AUTO 15010KT 120V180 9999 -DZ FEW006 BKN012 BKN023 11/10 Q1004 TEMPO 3000 RA BKN007 BKN012CB BECMG 33012KT
  • 232130Z AUTO 14008KT 110V170 9999 BKN006 OVC012 10/10 Q1005 TEMPO 3000 RA BKN010CB BECMG 23022G33KT

TAF TAF LFRD
Valid from the 24 at 00:00 until the 25 at 00:00 UTC


232300Z 2400/2424 36020G35KT 9999 OVC015
TEMPO 2400/2402 3000 RA BKN005 BKN012CB
BECMG 2401/2403 34010KT
PROB30
TEMPO 2402/2406 5000 RA BKN010
BECMG 2406/2408 23008KT BKN030
TEMPO 2413/2424 5000 SHRA BKN020TCU
BECMG 2420/2423 34015KT
ATIS : +33 2 99 16 81 50
No reported NOTAMs for that airfield.



MET'MAP, your aeronautical weather chart ! - Copyright ORBIFLY December 2007 - Disclaimer

ORBIFLY MET'MAP TEAM :

Programming & Development : Alexandra Zaïnal
Concept & Development : Baudouin d'Aumeries
Co-Development & Prog : Marc-Olivier Méhu
Technical & hardware support : Manuel Goepfert

Contact : metmap@orbifly.com




SOURCES & CREDITS :

   NOAA